createdAt,value
2023-04-18T05:38:30.412Z,2.17
2023-04-18T05:41:00.558Z,1.85
2023-04-18T05:43:28.453Z,2.00
2023-04-18T05:45:57.772Z,1.98
2023-04-18T05:48:25.882Z,2.20
2023-04-18T05:50:53.512Z,2.03
2023-04-18T05:53:21.424Z,1.80
2023-04-18T05:55:50.273Z,2.20
2023-04-18T05:58:17.948Z,1.85
2023-04-18T06:00:45.842Z,2.13
2023-04-18T06:03:13.816Z,2.00
2023-04-18T06:05:41.690Z,2.90
2023-04-18T06:08:09.500Z,2.70
2023-04-18T06:10:39.165Z,2.60
2023-04-18T06:13:06.971Z,2.65
2023-04-18T06:15:35.520Z,2.20
2023-04-18T06:18:03.204Z,2.28
2023-04-18T06:20:31.051Z,2.28
2023-04-18T06:22:58.776Z,2.53
2023-04-18T06:25:26.524Z,2.30
2023-04-18T06:27:54.154Z,2.10
2023-04-18T06:30:22.271Z,2.20
2023-04-18T06:32:50.063Z,2.75
2023-04-18T06:35:17.978Z,1.73
2023-04-18T06:37:46.114Z,2.50
2023-04-18T06:40:14.048Z,2.17
2023-04-18T06:42:42.684Z,2.10
2023-04-18T06:45:12.036Z,2.40
2023-04-18T06:47:40.915Z,1.75
2023-04-18T06:50:09.253Z,1.40
2023-04-18T06:52:40.819Z,1.50
2023-04-18T06:55:09.516Z,1.45
2023-04-18T06:57:41.783Z,1.70
2023-04-18T07:00:10.715Z,1.35
2023-04-18T07:02:39.928Z,1.73
2023-04-18T07:05:08.524Z,1.65
2023-04-18T07:07:36.261Z,1.33
2023-04-18T07:10:04.167Z,2.33
2023-04-18T07:12:31.868Z,1.83
2023-04-18T07:14:59.543Z,1.45
2023-04-18T07:17:27.267Z,1.80
2023-04-18T07:19:54.897Z,1.70
2023-04-18T07:22:22.528Z,2.10
2023-04-18T07:24:50.234Z,2.08
2023-04-18T07:27:17.934Z,1.40
2023-04-18T07:29:45.856Z,1.83
2023-04-18T07:32:13.626Z,2.28
2023-04-18T07:34:41.493Z,1.98
2023-04-18T07:37:09.342Z,2.28
2023-04-18T07:39:37.104Z,2.22
2023-04-18T07:42:04.944Z,2.72
2023-04-18T07:44:34.954Z,2.38
2023-04-18T07:47:03.426Z,1.80
2023-04-18T07:49:31.067Z,2.50
2023-04-18T07:51:58.721Z,1.88
2023-04-18T07:54:26.527Z,2.45
2023-04-18T07:56:54.275Z,2.10
2023-04-18T07:59:21.892Z,2.08
2023-04-18T08:01:49.599Z,2.70
2023-04-18T08:04:17.506Z,2.95
2023-04-18T08:06:45.429Z,2.50
2023-04-18T08:09:13.346Z,2.42
2023-04-18T08:11:42.795Z,2.65
2023-04-18T08:14:10.778Z,3.00
2023-04-18T08:16:40.129Z,2.10
2023-04-18T08:19:07.910Z,3.22
2023-04-18T08:21:35.799Z,2.78
2023-04-18T08:24:03.559Z,3.03
2023-04-18T08:26:31.264Z,3.03
2023-04-18T08:28:58.947Z,3.40
2023-04-18T08:31:27.754Z,3.30
2023-04-18T08:33:55.471Z,2.80
2023-04-18T08:36:25.012Z,3.42
2023-04-18T08:38:52.704Z,3.28
2023-04-18T08:41:25.202Z,3.42
2023-04-18T08:43:53.852Z,3.20
2023-04-18T08:46:23.338Z,3.17
2023-04-18T08:48:51.575Z,2.90
2023-04-18T08:51:19.370Z,3.10
2023-04-18T08:53:48.467Z,3.05
2023-04-18T08:56:16.502Z,2.90
2023-04-18T08:58:45.260Z,2.88
2023-04-18T09:01:13.861Z,3.70
2023-04-18T09:03:43.304Z,3.13
2023-04-18T09:06:20.393Z,3.25
2023-04-18T09:08:59.226Z,3.20
2023-04-18T09:11:29.748Z,3.33
2023-04-18T09:13:59.210Z,3.20
2023-04-18T09:16:28.166Z,3.40
2023-04-18T09:19:13.133Z,2.88
2023-04-18T09:21:44.658Z,3.53
2023-04-18T09:24:29.566Z,2.55
2023-04-18T09:26:59.880Z,2.85
2023-04-18T09:29:56.533Z,2.72
2023-04-18T09:32:29.451Z,2.75
2023-04-18T09:35:01.402Z,2.83
2023-04-18T09:37:31.139Z,2.72
2023-04-18T09:39:58.966Z,2.90
2023-04-18T09:42:28.810Z,2.67
2023-04-18T09:45:08.517Z,3.00
2023-04-18T09:47:37.583Z,3.00
2023-04-18T09:50:07.450Z,2.80
2023-04-18T09:52:42.509Z,2.78
2023-04-18T09:55:13.043Z,2.30
2023-04-18T09:57:44.509Z,3.35
2023-04-18T10:00:27.417Z,2.60
2023-04-18T10:03:09.991Z,3.00
2023-04-18T10:05:41.378Z,3.25
2023-04-18T10:08:09.616Z,3.47
2023-04-18T10:10:38.934Z,3.08
2023-04-18T10:13:11.835Z,3.38
2023-04-18T10:15:41.143Z,3.38
2023-04-18T10:18:14.471Z,3.65
2023-04-18T10:20:42.561Z,3.60
2023-04-18T10:23:40.399Z,3.35
2023-04-18T10:26:10.209Z,3.55
2023-04-18T10:28:58.676Z,3.15
2023-04-18T10:31:28.230Z,3.03
2023-04-18T10:36:31.219Z,2.67
2023-04-18T10:39:22.022Z,3.30
2023-04-18T10:41:51.228Z,2.97
2023-04-18T10:44:23.565Z,3.55
2023-04-18T10:46:51.656Z,3.17
2023-04-18T10:49:28.859Z,3.85
2023-04-18T10:51:59.653Z,2.92
2023-04-18T10:54:39.310Z,3.25
2023-04-18T10:57:11.466Z,3.13
2023-04-18T10:59:42.899Z,2.88
2023-04-18T11:02:30.997Z,2.80
2023-04-18T11:05:04.888Z,3.50
2023-04-18T11:07:36.371Z,3.20
2023-04-18T11:10:08.629Z,2.78
2023-04-18T11:12:38.537Z,3.28
2023-04-18T11:15:23.144Z,3.03
2023-04-18T11:18:05.046Z,3.13
2023-04-18T11:20:41.107Z,3.25
2023-04-18T11:23:24.897Z,4.13
2023-04-18T11:25:56.679Z,3.53
2023-04-18T11:28:27.560Z,3.65
2023-04-18T11:30:59.536Z,3.20
2023-04-18T11:33:29.411Z,3.50
2023-04-18T11:35:58.925Z,2.80
2023-04-18T11:38:33.994Z,3.85
2023-04-18T11:41:04.979Z,4.07
2023-04-18T11:43:32.731Z,3.95
2023-04-18T11:46:01.126Z,3.55
2023-04-18T11:48:39.198Z,3.42
2023-04-18T11:51:08.106Z,3.13
2023-04-18T11:53:37.188Z,2.65
2023-04-18T11:56:06.015Z,3.33
2023-04-18T11:58:34.722Z,3.00
2023-04-18T12:01:19.738Z,2.67
2023-04-18T12:04:07.389Z,2.45
2023-04-18T12:06:53.818Z,1.95
2023-04-18T12:09:24.558Z,2.38
2023-04-18T12:11:59.705Z,2.85
2023-04-18T12:14:28.571Z,2.60
2023-04-18T12:16:56.623Z,2.90
2023-04-18T12:19:28.459Z,2.90
2023-04-18T12:21:58.057Z,2.90
2023-04-18T12:24:26.632Z,3.00
2023-04-18T12:26:55.614Z,2.65
2023-04-18T12:29:24.020Z,3.38
2023-04-18T12:31:51.901Z,3.00
2023-04-18T12:34:19.777Z,3.38
2023-04-18T12:36:47.470Z,2.88
2023-04-18T12:39:15.212Z,3.15
2023-04-18T12:41:44.271Z,3.15
2023-04-18T12:44:12.815Z,2.88
2023-04-18T12:46:40.788Z,4.32
2023-04-18T12:49:08.563Z,3.03
2023-04-18T12:51:36.313Z,3.53
2023-04-18T12:54:04.395Z,3.38
2023-04-18T12:56:32.114Z,3.28
2023-04-18T12:58:59.881Z,3.35
2023-04-18T13:01:27.942Z,3.63
2023-04-18T13:04:04.346Z,3.22
2023-04-18T13:06:37.788Z,2.45
2023-04-18T13:09:05.704Z,2.60
2023-04-18T13:11:33.486Z,2.55
2023-04-18T13:14:01.386Z,2.78
2023-04-18T13:16:29.319Z,2.80
2023-04-18T13:18:57.081Z,2.38
2023-04-18T13:21:26.118Z,3.00
2023-04-18T13:23:53.817Z,2.55
2023-04-18T13:26:21.518Z,2.90
2023-04-18T13:28:50.287Z,2.45
2023-04-18T13:31:18.076Z,2.35
2023-04-18T13:33:45.813Z,1.80
2023-04-18T13:36:13.504Z,1.88
2023-04-18T13:38:41.809Z,1.88
2023-04-18T13:41:12.988Z,1.52
2023-04-18T13:43:41.688Z,1.45
2023-04-18T13:46:09.645Z,1.60
2023-04-18T13:48:37.556Z,1.80
2023-04-18T13:51:05.783Z,1.50
2023-04-18T13:53:33.558Z,1.40
2023-04-18T13:56:01.853Z,1.10
2023-04-18T13:58:29.907Z,1.20
2023-04-18T14:00:57.636Z,1.20
2023-04-18T14:03:25.559Z,0.80
2023-04-18T14:05:53.351Z,1.45
2023-04-18T14:08:21.142Z,1.52
2023-04-18T14:10:48.914Z,1.77
2023-04-18T14:13:16.790Z,1.20
2023-04-18T14:15:44.639Z,1.13
2023-04-18T14:18:12.629Z,1.40
2023-04-18T14:20:40.722Z,1.52
2023-04-18T14:23:08.527Z,1.35
2023-04-18T14:25:36.479Z,1.02
2023-04-18T14:28:10.969Z,1.63
2023-04-18T14:30:39.927Z,1.42
2023-04-18T14:33:09.639Z,1.50
2023-04-18T14:35:37.747Z,1.48
2023-04-18T14:38:05.497Z,1.20
2023-04-18T14:40:33.254Z,1.27
2023-04-18T14:43:01.184Z,1.30
2023-04-18T14:45:32.800Z,1.50
2023-04-18T14:48:01.357Z,1.10
2023-04-18T14:50:29.148Z,1.48
2023-04-18T14:52:57.051Z,1.40
2023-04-18T14:55:25.919Z,1.23
2023-04-18T14:57:54.932Z,1.23
2023-04-18T15:00:22.807Z,1.30
2023-04-18T15:02:50.802Z,1.30
2023-04-18T15:05:20.120Z,1.38
2023-04-18T15:07:48.031Z,1.50
2023-04-18T15:10:16.316Z,1.50
2023-04-18T15:12:44.180Z,1.25
2023-04-18T15:15:12.010Z,1.38
2023-04-18T15:17:39.975Z,1.33
2023-04-18T15:20:08.466Z,1.02
2023-04-18T15:22:37.236Z,1.33
2023-04-18T15:25:05.857Z,1.05
2023-04-18T15:27:33.576Z,1.00
2023-04-18T15:30:02.652Z,1.10
2023-04-18T15:32:31.167Z,1.33
2023-04-18T15:34:58.903Z,1.33
2023-04-18T15:37:26.724Z,1.25
2023-04-18T15:39:54.571Z,1.55
2023-04-18T15:42:22.360Z,1.30
2023-04-18T15:44:50.946Z,0.80
2023-04-18T15:47:18.688Z,1.08
2023-04-18T15:49:47.040Z,1.30
2023-04-18T15:52:16.092Z,1.33
2023-04-18T15:54:44.206Z,1.23
2023-04-18T15:57:12.039Z,1.30
2023-04-18T15:59:39.884Z,1.58
2023-04-18T16:02:09.376Z,1.60
2023-04-18T16:04:37.203Z,1.35
2023-04-18T16:07:05.113Z,1.55
2023-04-18T16:09:32.929Z,1.42
2023-04-18T16:12:01.844Z,1.40
2023-04-18T16:14:30.572Z,1.60
2023-04-18T16:16:59.252Z,1.45
2023-04-18T16:19:27.188Z,1.30
2023-04-18T16:21:54.957Z,2.10
2023-04-18T16:24:22.657Z,1.52
2023-04-18T16:26:50.604Z,2.50
2023-04-18T16:29:18.344Z,2.80
2023-04-18T16:31:46.277Z,2.20
2023-04-18T16:34:15.927Z,2.28
2023-04-18T16:36:43.911Z,1.92
2023-04-18T16:39:11.792Z,1.90
2023-04-18T16:41:39.567Z,2.35
2023-04-18T16:44:07.409Z,2.17
2023-04-18T16:46:35.215Z,1.80
2023-04-18T16:49:03.036Z,1.75
2023-04-18T16:51:31.455Z,1.75
2023-04-18T16:53:59.418Z,2.38
2023-04-18T16:56:27.164Z,2.22
2023-04-18T16:58:54.979Z,2.30
2023-04-18T17:01:22.839Z,1.90
2023-04-18T17:03:50.869Z,2.20
2023-04-18T17:06:19.610Z,2.17
2023-04-18T17:08:49.000Z,2.47
2023-04-18T17:11:16.845Z,1.95
2023-04-18T17:13:44.606Z,2.30
2023-04-18T17:16:12.522Z,1.88
2023-04-18T17:18:41.761Z,2.20
2023-04-18T17:21:12.605Z,2.28
2023-04-18T17:23:42.587Z,2.28
2023-04-18T17:26:10.654Z,2.00
2023-04-18T17:28:38.525Z,1.85
2023-04-18T17:31:06.735Z,2.08
2023-04-18T17:33:34.600Z,2.67
2023-04-18T17:36:03.284Z,2.33
2023-04-18T17:38:32.733Z,2.22
2023-04-18T17:41:01.609Z,2.10
2023-04-18T17:43:29.628Z,1.98
2023-04-18T17:46:00.397Z,2.28
2023-04-18T17:48:28.279Z,2.38
2023-04-18T17:50:56.108Z,1.50
2023-04-18T17:53:23.912Z,1.98
2023-04-18T17:55:52.447Z,2.20
2023-04-18T17:58:20.213Z,2.42
2023-04-18T18:00:48.300Z,1.90
2023-04-18T18:03:16.485Z,2.78
2023-04-18T18:05:48.607Z,2.53
2023-04-18T18:08:16.519Z,2.42
2023-04-18T18:10:46.969Z,2.80
2023-04-18T18:13:15.305Z,2.72
2023-04-18T18:15:43.000Z,2.50
2023-04-18T18:18:11.598Z,2.50
2023-04-18T18:20:43.379Z,2.42
2023-04-18T18:23:11.248Z,3.10
2023-04-18T18:25:39.038Z,2.78
2023-04-18T18:28:07.325Z,2.50
2023-04-18T18:30:37.600Z,3.40
2023-04-18T18:33:06.829Z,3.45
2023-04-18T18:35:36.338Z,3.13
2023-04-18T18:38:04.341Z,3.15
2023-04-18T18:40:32.284Z,2.90
2023-04-18T18:43:00.995Z,2.85
2023-04-18T18:45:28.862Z,2.75
2023-04-18T18:47:56.769Z,2.38
2023-04-18T18:50:24.821Z,3.10
2023-04-18T18:52:52.771Z,3.00
2023-04-18T18:55:20.504Z,3.38
2023-04-18T18:57:48.394Z,3.20
2023-04-18T19:00:16.618Z,3.15
2023-04-18T19:02:44.645Z,3.10
2023-04-18T19:05:15.285Z,2.97
2023-04-18T19:07:43.275Z,2.83
2023-04-18T19:10:11.475Z,2.92
2023-04-18T19:12:39.329Z,3.13
2023-04-18T19:15:07.729Z,3.08
2023-04-18T19:17:36.048Z,2.97
2023-04-18T19:20:08.155Z,3.55
2023-04-18T19:22:37.149Z,3.47
2023-04-18T19:25:06.145Z,3.55
2023-04-18T19:27:34.752Z,3.33
2023-04-18T19:30:03.059Z,3.60
2023-04-18T19:32:32.908Z,3.20
2023-04-18T19:35:01.633Z,3.22
2023-04-18T19:37:29.808Z,2.95
2023-04-18T19:39:57.919Z,3.83
2023-04-18T19:42:27.356Z,3.28
2023-04-18T19:44:56.681Z,3.28
2023-04-18T19:47:25.086Z,3.20
2023-04-18T19:49:53.362Z,3.00
2023-04-18T19:52:21.571Z,3.20
2023-04-18T19:54:49.731Z,3.17
2023-04-18T19:57:17.825Z,2.95
2023-04-18T19:59:45.780Z,2.42
2023-04-18T20:02:13.832Z,2.83
2023-04-18T20:04:42.424Z,3.30
2023-04-18T20:07:10.700Z,2.92
2023-04-18T20:09:38.745Z,2.80
2023-04-18T20:12:06.781Z,3.63
2023-04-18T20:14:37.850Z,3.97
2023-04-18T20:17:19.947Z,3.30
2023-04-18T20:19:49.905Z,3.35
2023-04-18T20:22:19.188Z,3.42
2023-04-18T20:24:48.920Z,3.45
2023-04-18T20:27:20.573Z,3.50
2023-04-18T20:29:48.686Z,3.50
2023-04-18T20:32:16.856Z,3.20
2023-04-18T20:34:46.854Z,3.22
2023-04-18T20:37:16.245Z,3.67
2023-04-18T20:39:44.525Z,2.90
2023-04-18T20:42:14.822Z,3.08
2023-04-18T20:44:44.307Z,3.28
2023-04-18T20:47:14.752Z,2.55
2023-04-18T20:49:43.721Z,3.17
2023-04-18T20:52:11.802Z,3.00
2023-04-18T20:54:41.878Z,3.42
2023-04-18T20:57:10.086Z,2.67
2023-04-18T20:59:38.395Z,3.05
2023-04-18T21:02:09.408Z,2.70
2023-04-18T21:04:37.793Z,2.97
2023-04-18T21:07:05.926Z,2.80
2023-04-18T21:09:36.800Z,2.95
2023-04-18T21:12:06.095Z,2.55
2023-04-18T21:14:34.496Z,3.25
2023-04-18T21:17:02.322Z,2.63
2023-04-18T21:19:30.157Z,2.45
2023-04-18T21:21:57.999Z,2.35
2023-04-18T21:24:25.811Z,2.65
2023-04-18T21:26:53.704Z,2.97
2023-04-18T21:29:21.957Z,2.30
2023-04-18T21:31:50.347Z,2.53
2023-04-18T21:34:18.232Z,2.40
2023-04-18T21:36:46.260Z,2.65
2023-04-18T21:39:14.085Z,2.35
2023-04-18T21:41:41.885Z,2.75
2023-04-18T21:44:09.690Z,2.95
2023-04-18T21:46:37.523Z,2.63
2023-04-18T21:49:05.378Z,2.83
2023-04-18T21:51:33.270Z,2.20
2023-04-18T21:54:01.230Z,2.38
2023-04-18T21:56:29.048Z,2.97
2023-04-18T21:58:56.825Z,2.60
2023-04-18T22:01:24.767Z,2.42
2023-04-18T22:03:53.021Z,2.28
2023-04-18T22:06:22.156Z,2.35
2023-04-18T22:08:50.171Z,2.50
2023-04-18T22:11:18.858Z,2.40
2023-04-18T22:13:47.508Z,2.45
2023-04-18T22:16:15.597Z,2.22
2023-04-18T22:18:43.502Z,2.67
2023-04-18T22:21:11.434Z,2.90
2023-04-18T22:23:39.260Z,2.28
2023-04-18T22:26:06.985Z,2.10
2023-04-18T22:28:34.793Z,2.53
2023-04-18T22:31:02.815Z,2.55
2023-04-18T22:33:30.854Z,2.55
2023-04-18T22:35:58.758Z,2.25
2023-04-18T22:38:26.560Z,2.45
2023-04-18T22:40:54.397Z,2.53
2023-04-18T22:43:23.923Z,2.33
2023-04-18T22:45:51.841Z,2.35
2023-04-18T22:48:19.773Z,2.50
2023-04-18T22:50:47.645Z,2.28
2023-04-18T22:53:16.130Z,2.20
2023-04-18T22:55:45.027Z,2.00
2023-04-18T22:58:13.591Z,2.25
2023-04-18T23:00:41.410Z,1.80
2023-04-18T23:03:09.420Z,2.00
2023-04-18T23:05:37.389Z,2.28
2023-04-18T23:08:07.101Z,2.30
2023-04-18T23:10:35.130Z,2.10
2023-04-18T23:13:02.930Z,1.98
2023-04-18T23:15:30.765Z,2.20
2023-04-18T23:17:58.672Z,2.30
2023-04-18T23:20:26.515Z,2.28
2023-04-18T23:22:55.563Z,2.35
2023-04-18T23:25:23.405Z,2.17
2023-04-18T23:27:51.271Z,2.58
2023-04-18T23:30:19.035Z,2.10
2023-04-18T23:32:46.875Z,2.03
2023-04-18T23:35:14.701Z,2.22
2023-04-18T23:37:42.584Z,3.42
2023-04-18T23:40:11.220Z,2.67
2023-04-18T23:42:39.006Z,1.77
2023-04-18T23:45:07.185Z,2.63
2023-04-18T23:47:35.587Z,2.38
2023-04-18T23:50:03.595Z,2.97
2023-04-18T23:52:31.336Z,2.35
2023-04-18T23:55:00.929Z,2.20
2023-04-18T23:57:28.897Z,2.53
2023-04-18T23:59:56.675Z,2.42
